sensor_id;sensor_type;location;lat;lon;timestamp;P1;durP1;ratioP1;P2;durP2;ratioP2
70707;SDS011;58277;47.316;18.908;2024-03-22T00:02:21;31.17;;;12.38;;
70707;SDS011;58277;47.316;18.908;2024-03-22T00:04:43;31.15;;;12.52;;
70707;SDS011;58277;47.316;18.908;2024-03-22T00:07:04;28.40;;;11.90;;
70707;SDS011;58277;47.316;18.908;2024-03-22T00:09:26;30.48;;;12.98;;
70707;SDS011;58277;47.316;18.908;2024-03-22T00:11:48;31.80;;;12.00;;
70707;SDS011;58277;47.316;18.908;2024-03-22T00:14:10;28.48;;;11.55;;
70707;SDS011;58277;47.316;18.908;2024-03-22T00:16:33;27.20;;;11.23;;
70707;SDS011;58277;47.316;18.908;2024-03-22T00:18:54;32.42;;;13.02;;
70707;SDS011;58277;47.316;18.908;2024-03-22T00:21:16;28.98;;;12.13;;
70707;SDS011;58277;47.316;18.908;2024-03-22T00:23:38;32.07;;;12.30;;
70707;SDS011;58277;47.316;18.908;2024-03-22T00:25:59;29.60;;;12.48;;
70707;SDS011;58277;47.316;18.908;2024-03-22T00:28:21;26.10;;;12.25;;
70707;SDS011;58277;47.316;18.908;2024-03-22T00:30:43;27.27;;;11.90;;
70707;SDS011;58277;47.316;18.908;2024-03-22T00:33:05;31.73;;;12.23;;
70707;SDS011;58277;47.316;18.908;2024-03-22T00:35:26;28.77;;;12.03;;
70707;SDS011;58277;47.316;18.908;2024-03-22T00:37:48;32.78;;;13.05;;
70707;SDS011;58277;47.316;18.908;2024-03-22T00:40:10;30.63;;;12.55;;
70707;SDS011;58277;47.316;18.908;2024-03-22T00:42:33;30.45;;;13.05;;
70707;SDS011;58277;47.316;18.908;2024-03-22T00:44:54;28.40;;;13.25;;
70707;SDS011;58277;47.316;18.908;2024-03-22T00:47:16;28.67;;;12.47;;
70707;SDS011;58277;47.316;18.908;2024-03-22T00:49:38;31.20;;;13.60;;
70707;SDS011;58277;47.316;18.908;2024-03-22T00:51:59;30.17;;;13.95;;
70707;SDS011;58277;47.316;18.908;2024-03-22T00:54:22;28.77;;;12.90;;
70707;SDS011;58277;47.316;18.908;2024-03-22T00:56:44;30.92;;;13.70;;
70707;SDS011;58277;47.316;18.908;2024-03-22T00:59:05;33.33;;;13.53;;
70707;SDS011;58277;47.316;18.908;2024-03-22T01:01:28;30.52;;;12.90;;
70707;SDS011;58277;47.316;18.908;2024-03-22T01:03:49;29.25;;;13.88;;
70707;SDS011;58277;47.316;18.908;2024-03-22T01:06:11;31.35;;;13.23;;
70707;SDS011;58277;47.316;18.908;2024-03-22T01:08:33;32.42;;;13.32;;
70707;SDS011;58277;47.316;18.908;2024-03-22T01:10:55;31.63;;;13.20;;
70707;SDS011;58277;47.316;18.908;2024-03-22T01:13:16;29.80;;;13.73;;
70707;SDS011;58277;47.316;18.908;2024-03-22T01:15:38;29.23;;;13.45;;
70707;SDS011;58277;47.316;18.908;2024-03-22T01:18:00;30.10;;;13.05;;
70707;SDS011;58277;47.316;18.908;2024-03-22T01:20:22;31.25;;;13.30;;
70707;SDS011;58277;47.316;18.908;2024-03-22T01:22:43;31.50;;;12.77;;
70707;SDS011;58277;47.316;18.908;2024-03-22T01:25:05;30.05;;;12.50;;
70707;SDS011;58277;47.316;18.908;2024-03-22T01:27:27;29.52;;;12.55;;
70707;SDS011;58277;47.316;18.908;2024-03-22T01:29:49;29.02;;;12.07;;
70707;SDS011;58277;47.316;18.908;2024-03-22T01:32:11;28.92;;;12.50;;
70707;SDS011;58277;47.316;18.908;2024-03-22T01:34:32;27.23;;;11.70;;
70707;SDS011;58277;47.316;18.908;2024-03-22T01:36:56;33.97;;;12.30;;
70707;SDS011;58277;47.316;18.908;2024-03-22T01:39:21;26.10;;;12.32;;
70707;SDS011;58277;47.316;18.908;2024-03-22T01:41:43;31.40;;;12.88;;
70707;SDS011;58277;47.316;18.908;2024-03-22T01:44:05;30.33;;;13.15;;
70707;SDS011;58277;47.316;18.908;2024-03-22T01:46:27;31.20;;;12.43;;
70707;SDS011;58277;47.316;18.908;2024-03-22T01:48:48;27.00;;;11.95;;
70707;SDS011;58277;47.316;18.908;2024-03-22T01:51:10;28.80;;;13.00;;
70707;SDS011;58277;47.316;18.908;2024-03-22T01:53:34;28.63;;;12.82;;
70707;SDS011;58277;47.316;18.908;2024-03-22T01:55:58;29.10;;;13.57;;
70707;SDS011;58277;47.316;18.908;2024-03-22T01:58:20;28.80;;;12.77;;
70707;SDS011;58277;47.316;18.908;2024-03-22T02:00:43;28.20;;;12.70;;
70707;SDS011;58277;47.316;18.908;2024-03-22T02:03:05;31.33;;;12.90;;
70707;SDS011;58277;47.316;18.908;2024-03-22T02:05:27;28.30;;;11.88;;
70707;SDS011;58277;47.316;18.908;2024-03-22T02:07:49;29.55;;;12.68;;
70707;SDS011;58277;47.316;18.908;2024-03-22T02:10:11;27.90;;;12.27;;
70707;SDS011;58277;47.316;18.908;2024-03-22T02:12:34;27.90;;;12.10;;
70707;SDS011;58277;47.316;18.908;2024-03-22T02:14:58;32.28;;;12.60;;
70707;SDS011;58277;47.316;18.908;2024-03-22T02:17:20;28.95;;;12.75;;
70707;SDS011;58277;47.316;18.908;2024-03-22T02:19:42;26.00;;;12.13;;
70707;SDS011;58277;47.316;18.908;2024-03-22T02:22:03;28.17;;;12.57;;
70707;SDS011;58277;47.316;18.908;2024-03-22T02:24:25;26.35;;;12.57;;
70707;SDS011;58277;47.316;18.908;2024-03-22T02:26:48;29.73;;;12.98;;
70707;SDS011;58277;47.316;18.908;2024-03-22T02:29:10;30.35;;;12.80;;
70707;SDS011;58277;47.316;18.908;2024-03-22T02:31:31;30.38;;;13.10;;
70707;SDS011;58277;47.316;18.908;2024-03-22T02:33:53;27.70;;;12.30;;
70707;SDS011;58277;47.316;18.908;2024-03-22T02:36:15;29.65;;;12.77;;
70707;SDS011;58277;47.316;18.908;2024-03-22T02:38:37;29.98;;;13.02;;
70707;SDS011;58277;47.316;18.908;2024-03-22T02:40:59;27.77;;;12.05;;
70707;SDS011;58277;47.316;18.908;2024-03-22T02:43:20;28.92;;;13.43;;
70707;SDS011;58277;47.316;18.908;2024-03-22T02:45:42;28.07;;;12.60;;
70707;SDS011;58277;47.316;18.908;2024-03-22T02:48:04;30.27;;;12.88;;
70707;SDS011;58277;47.316;18.908;2024-03-22T02:50:27;29.13;;;13.13;;
70707;SDS011;58277;47.316;18.908;2024-03-22T02:52:49;32.15;;;13.15;;
70707;SDS011;58277;47.316;18.908;2024-03-22T02:55:11;28.63;;;13.32;;
70707;SDS011;58277;47.316;18.908;2024-03-22T02:57:33;30.63;;;13.37;;
70707;SDS011;58277;47.316;18.908;2024-03-22T02:59:54;30.58;;;13.57;;
70707;SDS011;58277;47.316;18.908;2024-03-22T03:02:16;29.25;;;13.52;;
70707;SDS011;58277;47.316;18.908;2024-03-22T03:04:38;29.98;;;13.27;;
70707;SDS011;58277;47.316;18.908;2024-03-22T03:06:59;30.77;;;13.80;;
70707;SDS011;58277;47.316;18.908;2024-03-22T03:09:22;27.17;;;12.47;;
70707;SDS011;58277;47.316;18.908;2024-03-22T03:11:43;28.55;;;13.50;;
70707;SDS011;58277;47.316;18.908;2024-03-22T03:14:05;31.10;;;14.15;;
70707;SDS011;58277;47.316;18.908;2024-03-22T03:16:27;32.53;;;13.85;;
70707;SDS011;58277;47.316;18.908;2024-03-22T03:18:49;29.23;;;13.90;;
70707;SDS011;58277;47.316;18.908;2024-03-22T03:21:10;29.10;;;13.73;;
70707;SDS011;58277;47.316;18.908;2024-03-22T03:23:32;33.92;;;14.38;;
70707;SDS011;58277;47.316;18.908;2024-03-22T03:25:54;30.38;;;13.40;;
70707;SDS011;58277;47.316;18.908;2024-03-22T03:28:15;28.95;;;13.02;;
70707;SDS011;58277;47.316;18.908;2024-03-22T03:30:37;29.33;;;13.40;;
70707;SDS011;58277;47.316;18.908;2024-03-22T03:33:02;30.47;;;13.57;;
70707;SDS011;58277;47.316;18.908;2024-03-22T03:35:23;27.23;;;12.77;;
70707;SDS011;58277;47.316;18.908;2024-03-22T03:37:47;27.50;;;12.82;;
70707;SDS011;58277;47.316;18.908;2024-03-22T03:40:09;26.02;;;12.20;;
70707;SDS011;58277;47.316;18.908;2024-03-22T03:42:30;28.45;;;12.85;;
70707;SDS011;58277;47.316;18.908;2024-03-22T03:44:52;23.87;;;12.33;;
70707;SDS011;58277;47.316;18.908;2024-03-22T03:47:14;25.17;;;12.30;;
70707;SDS011;58277;47.316;18.908;2024-03-22T03:49:36;24.67;;;12.77;;
70707;SDS011;58277;47.316;18.908;2024-03-22T03:51:57;25.02;;;11.80;;
70707;SDS011;58277;47.316;18.908;2024-03-22T03:54:19;23.25;;;11.52;;
70707;SDS011;58277;47.316;18.908;2024-03-22T03:56:41;24.67;;;11.10;;
70707;SDS011;58277;47.316;18.908;2024-03-22T03:59:03;24.67;;;12.15;;
70707;SDS011;58277;47.316;18.908;2024-03-22T04:01:24;21.55;;;11.57;;
70707;SDS011;58277;47.316;18.908;2024-03-22T04:03:48;22.02;;;11.50;;
70707;SDS011;58277;47.316;18.908;2024-03-22T04:06:10;23.60;;;11.45;;
70707;SDS011;58277;47.316;18.908;2024-03-22T04:08:32;24.53;;;10.67;;
70707;SDS011;58277;47.316;18.908;2024-03-22T04:10:54;22.30;;;10.82;;
70707;SDS011;58277;47.316;18.908;2024-03-22T04:13:20;20.85;;;10.98;;
70707;SDS011;58277;47.316;18.908;2024-03-22T04:15:42;20.73;;;10.68;;
70707;SDS011;58277;47.316;18.908;2024-03-22T04:18:03;21.25;;;11.45;;
70707;SDS011;58277;47.316;18.908;2024-03-22T04:20:28;20.17;;;10.20;;
70707;SDS011;58277;47.316;18.908;2024-03-22T04:22:49;23.45;;;11.25;;
70707;SDS011;58277;47.316;18.908;2024-03-22T04:25:13;22.13;;;11.30;;
70707;SDS011;58277;47.316;18.908;2024-03-22T04:27:35;22.17;;;11.18;;
70707;SDS011;58277;47.316;18.908;2024-03-22T04:29:57;22.08;;;11.55;;
70707;SDS011;58277;47.316;18.908;2024-03-22T04:32:19;22.33;;;11.13;;
70707;SDS011;58277;47.316;18.908;2024-03-22T04:34:42;21.55;;;11.43;;
70707;SDS011;58277;47.316;18.908;2024-03-22T04:37:04;20.98;;;11.45;;
70707;SDS011;58277;47.316;18.908;2024-03-22T04:39:25;23.48;;;11.35;;
70707;SDS011;58277;47.316;18.908;2024-03-22T04:41:47;21.80;;;11.23;;
70707;SDS011;58277;47.316;18.908;2024-03-22T04:44:09;21.10;;;11.27;;
70707;SDS011;58277;47.316;18.908;2024-03-22T04:46:30;23.77;;;11.57;;
70707;SDS011;58277;47.316;18.908;2024-03-22T04:48:52;23.05;;;11.90;;
70707;SDS011;58277;47.316;18.908;2024-03-22T04:51:14;23.48;;;12.55;;
70707;SDS011;58277;47.316;18.908;2024-03-22T04:53:36;23.90;;;12.68;;
70707;SDS011;58277;47.316;18.908;2024-03-22T04:55:58;23.90;;;11.90;;
70707;SDS011;58277;47.316;18.908;2024-03-22T04:58:20;26.13;;;12.13;;
70707;SDS011;58277;47.316;18.908;2024-03-22T05:00:42;23.90;;;12.50;;
70707;SDS011;58277;47.316;18.908;2024-03-22T05:03:05;24.15;;;12.27;;
70707;SDS011;58277;47.316;18.908;2024-03-22T05:05:26;25.52;;;12.73;;
70707;SDS011;58277;47.316;18.908;2024-03-22T05:07:48;24.40;;;12.37;;
70707;SDS011;58277;47.316;18.908;2024-03-22T05:10:10;24.23;;;12.68;;
70707;SDS011;58277;47.316;18.908;2024-03-22T05:12:32;25.73;;;12.50;;
70707;SDS011;58277;47.316;18.908;2024-03-22T05:14:53;26.63;;;12.93;;
70707;SDS011;58277;47.316;18.908;2024-03-22T05:17:15;26.85;;;13.07;;
70707;SDS011;58277;47.316;18.908;2024-03-22T05:19:37;24.43;;;12.30;;
70707;SDS011;58277;47.316;18.908;2024-03-22T05:21:58;23.33;;;11.80;;
70707;SDS011;58277;47.316;18.908;2024-03-22T05:24:22;26.77;;;12.18;;
70707;SDS011;58277;47.316;18.908;2024-03-22T05:26:43;24.67;;;11.75;;
70707;SDS011;58277;47.316;18.908;2024-03-22T05:29:05;22.48;;;11.55;;
70707;SDS011;58277;47.316;18.908;2024-03-22T05:31:27;22.67;;;11.23;;
70707;SDS011;58277;47.316;18.908;2024-03-22T05:33:48;22.30;;;11.43;;
70707;SDS011;58277;47.316;18.908;2024-03-22T05:36:12;21.50;;;11.15;;
70707;SDS011;58277;47.316;18.908;2024-03-22T05:38:35;25.67;;;11.15;;
70707;SDS011;58277;47.316;18.908;2024-03-22T05:40:56;22.27;;;11.07;;
70707;SDS011;58277;47.316;18.908;2024-03-22T05:43:18;22.77;;;11.10;;
70707;SDS011;58277;47.316;18.908;2024-03-22T05:45:40;20.27;;;11.40;;
70707;SDS011;58277;47.316;18.908;2024-03-22T05:48:01;22.08;;;11.75;;
70707;SDS011;58277;47.316;18.908;2024-03-22T05:50:23;22.55;;;11.20;;
70707;SDS011;58277;47.316;18.908;2024-03-22T05:52:45;21.08;;;10.88;;
70707;SDS011;58277;47.316;18.908;2024-03-22T05:55:07;22.27;;;11.00;;
70707;SDS011;58277;47.316;18.908;2024-03-22T05:57:28;21.40;;;10.88;;
70707;SDS011;58277;47.316;18.908;2024-03-22T05:59:50;22.50;;;10.93;;
70707;SDS011;58277;47.316;18.908;2024-03-22T06:02:12;20.02;;;10.82;;
70707;SDS011;58277;47.316;18.908;2024-03-22T06:04:34;22.15;;;11.95;;
70707;SDS011;58277;47.316;18.908;2024-03-22T06:06:57;24.03;;;11.77;;
70707;SDS011;58277;47.316;18.908;2024-03-22T06:09:21;24.27;;;11.88;;
70707;SDS011;58277;47.316;18.908;2024-03-22T06:11:55;21.73;;;11.70;;
70707;SDS011;58277;47.316;18.908;2024-03-22T06:14:17;20.58;;;11.43;;
70707;SDS011;58277;47.316;18.908;2024-03-22T06:16:39;22.25;;;11.90;;
70707;SDS011;58277;47.316;18.908;2024-03-22T06:19:00;19.77;;;10.60;;
70707;SDS011;58277;47.316;18.908;2024-03-22T06:21:22;22.60;;;11.88;;
70707;SDS011;58277;47.316;18.908;2024-03-22T06:23:46;22.52;;;11.98;;
70707;SDS011;58277;47.316;18.908;2024-03-22T06:26:08;19.75;;;11.13;;
70707;SDS011;58277;47.316;18.908;2024-03-22T06:28:31;21.23;;;11.90;;
70707;SDS011;58277;47.316;18.908;2024-03-22T06:30:53;22.67;;;11.90;;
70707;SDS011;58277;47.316;18.908;2024-03-22T06:33:16;24.00;;;11.55;;
70707;SDS011;58277;47.316;18.908;2024-03-22T06:35:38;21.35;;;10.93;;
70707;SDS011;58277;47.316;18.908;2024-03-22T06:38:00;21.48;;;11.40;;
70707;SDS011;58277;47.316;18.908;2024-03-22T06:40:24;22.33;;;11.05;;
70707;SDS011;58277;47.316;18.908;2024-03-22T06:42:45;21.03;;;11.67;;
70707;SDS011;58277;47.316;18.908;2024-03-22T06:45:07;21.35;;;11.18;;
70707;SDS011;58277;47.316;18.908;2024-03-22T06:47:29;21.73;;;11.57;;
70707;SDS011;58277;47.316;18.908;2024-03-22T06:49:51;21.02;;;11.20;;
70707;SDS011;58277;47.316;18.908;2024-03-22T06:52:13;22.00;;;11.30;;
70707;SDS011;58277;47.316;18.908;2024-03-22T06:54:36;21.53;;;11.30;;
70707;SDS011;58277;47.316;18.908;2024-03-22T06:56:58;27.40;;;12.45;;
70707;SDS011;58277;47.316;18.908;2024-03-22T06:59:20;22.27;;;11.75;;
70707;SDS011;58277;47.316;18.908;2024-03-22T07:01:44;20.35;;;11.60;;
70707;SDS011;58277;47.316;18.908;2024-03-22T07:04:06;21.90;;;12.00;;
70707;SDS011;58277;47.316;18.908;2024-03-22T07:06:29;22.93;;;11.30;;
70707;SDS011;58277;47.316;18.908;2024-03-22T07:08:54;22.10;;;11.90;;
70707;SDS011;58277;47.316;18.908;2024-03-22T07:11:18;21.48;;;11.95;;
70707;SDS011;58277;47.316;18.908;2024-03-22T07:13:39;22.17;;;11.88;;
70707;SDS011;58277;47.316;18.908;2024-03-22T07:16:01;24.27;;;12.57;;
70707;SDS011;58277;47.316;18.908;2024-03-22T07:18:25;24.97;;;12.47;;
70707;SDS011;58277;47.316;18.908;2024-03-22T07:20:47;23.70;;;12.52;;
70707;SDS011;58277;47.316;18.908;2024-03-22T07:23:10;24.60;;;12.57;;
70707;SDS011;58277;47.316;18.908;2024-03-22T07:25:32;20.52;;;11.93;;
70707;SDS011;58277;47.316;18.908;2024-03-22T07:27:54;22.83;;;11.95;;
70707;SDS011;58277;47.316;18.908;2024-03-22T07:30:16;22.17;;;11.80;;
70707;SDS011;58277;47.316;18.908;2024-03-22T07:32:39;22.85;;;12.18;;
70707;SDS011;58277;47.316;18.908;2024-03-22T07:35:01;22.50;;;12.27;;
70707;SDS011;58277;47.316;18.908;2024-03-22T07:37:22;27.02;;;13.43;;
70707;SDS011;58277;47.316;18.908;2024-03-22T07:39:44;23.10;;;12.32;;
70707;SDS011;58277;47.316;18.908;2024-03-22T07:42:06;20.37;;;12.00;;
70707;SDS011;58277;47.316;18.908;2024-03-22T07:44:28;27.33;;;12.88;;
70707;SDS011;58277;47.316;18.908;2024-03-22T07:46:53;23.65;;;12.52;;
70707;SDS011;58277;47.316;18.908;2024-03-22T07:49:16;24.52;;;11.98;;
70707;SDS011;58277;47.316;18.908;2024-03-22T07:51:38;24.48;;;12.90;;
70707;SDS011;58277;47.316;18.908;2024-03-22T07:54:00;25.93;;;12.67;;
70707;SDS011;58277;47.316;18.908;2024-03-22T07:56:23;24.00;;;12.50;;
70707;SDS011;58277;47.316;18.908;2024-03-22T07:58:45;23.52;;;12.48;;
70707;SDS011;58277;47.316;18.908;2024-03-22T08:01:08;24.27;;;12.48;;
70707;SDS011;58277;47.316;18.908;2024-03-22T08:03:31;24.17;;;12.80;;
70707;SDS011;58277;47.316;18.908;2024-03-22T08:05:53;24.60;;;13.00;;
70707;SDS011;58277;47.316;18.908;2024-03-22T08:08:15;25.95;;;13.38;;
70707;SDS011;58277;47.316;18.908;2024-03-22T08:10:39;22.98;;;13.00;;
70707;SDS011;58277;47.316;18.908;2024-03-22T08:13:01;26.65;;;13.00;;
70707;SDS011;58277;47.316;18.908;2024-03-22T08:15:23;26.52;;;13.25;;
70707;SDS011;58277;47.316;18.908;2024-03-22T08:17:44;25.10;;;12.93;;
70707;SDS011;58277;47.316;18.908;2024-03-22T08:20:06;25.02;;;13.15;;
70707;SDS011;58277;47.316;18.908;2024-03-22T08:22:28;25.35;;;13.40;;
70707;SDS011;58277;47.316;18.908;2024-03-22T08:24:55;26.92;;;13.38;;
70707;SDS011;58277;47.316;18.908;2024-03-22T08:27:17;25.60;;;13.02;;
70707;SDS011;58277;47.316;18.908;2024-03-22T08:29:39;27.10;;;13.47;;
70707;SDS011;58277;47.316;18.908;2024-03-22T08:32:01;27.90;;;13.48;;
70707;SDS011;58277;47.316;18.908;2024-03-22T08:34:25;24.88;;;13.18;;
70707;SDS011;58277;47.316;18.908;2024-03-22T08:36:47;24.55;;;12.48;;
70707;SDS011;58277;47.316;18.908;2024-03-22T08:39:11;28.70;;;14.05;;
70707;SDS011;58277;47.316;18.908;2024-03-22T08:41:33;26.73;;;13.03;;
70707;SDS011;58277;47.316;18.908;2024-03-22T08:43:57;26.60;;;12.52;;
70707;SDS011;58277;47.316;18.908;2024-03-22T08:46:19;23.67;;;13.32;;
70707;SDS011;58277;47.316;18.908;2024-03-22T08:48:42;25.33;;;12.73;;
70707;SDS011;58277;47.316;18.908;2024-03-22T08:51:07;25.65;;;13.45;;
70707;SDS011;58277;47.316;18.908;2024-03-22T08:53:29;27.10;;;13.77;;
70707;SDS011;58277;47.316;18.908;2024-03-22T08:55:54;26.35;;;13.90;;
70707;SDS011;58277;47.316;18.908;2024-03-22T08:58:16;26.27;;;13.48;;
70707;SDS011;58277;47.316;18.908;2024-03-22T09:00:38;23.08;;;13.30;;
70707;SDS011;58277;47.316;18.908;2024-03-22T09:03:00;26.13;;;13.73;;
70707;SDS011;58277;47.316;18.908;2024-03-22T09:05:22;27.33;;;13.87;;
70707;SDS011;58277;47.316;18.908;2024-03-22T09:07:44;24.00;;;13.40;;
70707;SDS011;58277;47.316;18.908;2024-03-22T09:10:06;25.48;;;12.65;;
70707;SDS011;58277;47.316;18.908;2024-03-22T09:12:31;25.27;;;13.55;;
70707;SDS011;58277;47.316;18.908;2024-03-22T09:14:52;29.55;;;13.85;;
70707;SDS011;58277;47.316;18.908;2024-03-22T09:17:14;26.33;;;13.30;;
70707;SDS011;58277;47.316;18.908;2024-03-22T09:19:38;23.67;;;12.93;;
70707;SDS011;58277;47.316;18.908;2024-03-22T09:22:06;24.20;;;13.10;;
70707;SDS011;58277;47.316;18.908;2024-03-22T09:24:28;24.88;;;13.25;;
70707;SDS011;58277;47.316;18.908;2024-03-22T09:26:50;23.08;;;12.60;;
70707;SDS011;58277;47.316;18.908;2024-03-22T09:29:15;25.73;;;13.63;;
70707;SDS011;58277;47.316;18.908;2024-03-22T09:31:37;23.55;;;13.13;;
70707;SDS011;58277;47.316;18.908;2024-03-22T09:33:59;23.45;;;13.80;;
70707;SDS011;58277;47.316;18.908;2024-03-22T09:36:21;22.75;;;13.18;;
70707;SDS011;58277;47.316;18.908;2024-03-22T09:38:43;22.48;;;13.07;;
70707;SDS011;58277;47.316;18.908;2024-03-22T09:41:08;25.03;;;13.30;;
70707;SDS011;58277;47.316;18.908;2024-03-22T09:43:30;24.35;;;13.88;;
70707;SDS011;58277;47.316;18.908;2024-03-22T09:45:56;24.60;;;14.02;;
70707;SDS011;58277;47.316;18.908;2024-03-22T09:48:19;25.35;;;13.73;;
70707;SDS011;58277;47.316;18.908;2024-03-22T09:50:41;25.15;;;14.25;;
70707;SDS011;58277;47.316;18.908;2024-03-22T09:53:07;24.23;;;13.60;;
70707;SDS011;58277;47.316;18.908;2024-03-22T09:55:32;24.65;;;14.18;;
70707;SDS011;58277;47.316;18.908;2024-03-22T09:58:00;26.70;;;14.20;;
70707;SDS011;58277;47.316;18.908;2024-03-22T10:00:23;26.30;;;13.93;;
70707;SDS011;58277;47.316;18.908;2024-03-22T10:02:48;23.77;;;14.23;;
70707;SDS011;58277;47.316;18.908;2024-03-22T10:05:10;25.23;;;13.47;;
70707;SDS011;58277;47.316;18.908;2024-03-22T10:07:34;23.23;;;13.57;;
70707;SDS011;58277;47.316;18.908;2024-03-22T10:09:58;22.75;;;13.90;;
70707;SDS011;58277;47.316;18.908;2024-03-22T10:12:23;27.15;;;13.85;;
70707;SDS011;58277;47.316;18.908;2024-03-22T10:14:50;26.48;;;14.15;;
70707;SDS011;58277;47.316;18.908;2024-03-22T10:17:16;23.40;;;14.20;;
70707;SDS011;58277;47.316;18.908;2024-03-22T10:19:38;24.70;;;13.45;;
70707;SDS011;58277;47.316;18.908;2024-03-22T10:22:02;24.35;;;13.30;;
70707;SDS011;58277;47.316;18.908;2024-03-22T10:24:25;23.08;;;13.13;;
70707;SDS011;58277;47.316;18.908;2024-03-22T10:26:47;23.25;;;14.05;;
70707;SDS011;58277;47.316;18.908;2024-03-22T10:29:08;22.80;;;14.10;;
70707;SDS011;58277;47.316;18.908;2024-03-22T10:31:34;25.70;;;14.13;;
70707;SDS011;58277;47.316;18.908;2024-03-22T10:33:56;24.20;;;14.35;;
70707;SDS011;58277;47.316;18.908;2024-03-22T10:36:20;22.60;;;13.38;;
70707;SDS011;58277;47.316;18.908;2024-03-22T10:38:42;22.25;;;13.18;;
70707;SDS011;58277;47.316;18.908;2024-03-22T10:41:07;22.23;;;12.43;;
70707;SDS011;58277;47.316;18.908;2024-03-22T10:43:34;22.58;;;12.30;;
70707;SDS011;58277;47.316;18.908;2024-03-22T10:46:00;21.98;;;12.30;;
70707;SDS011;58277;47.316;18.908;2024-03-22T10:48:28;19.42;;;11.57;;
70707;SDS011;58277;47.316;18.908;2024-03-22T10:50:55;20.58;;;11.77;;
70707;SDS011;58277;47.316;18.908;2024-03-22T10:53:23;25.13;;;11.20;;
70707;SDS011;58277;47.316;18.908;2024-03-22T10:55:47;21.67;;;11.27;;
70707;SDS011;58277;47.316;18.908;2024-03-22T10:58:17;20.75;;;11.90;;
70707;SDS011;58277;47.316;18.908;2024-03-22T11:00:41;20.30;;;11.85;;
70707;SDS011;58277;47.316;18.908;2024-03-22T11:03:04;17.48;;;10.35;;
70707;SDS011;58277;47.316;18.908;2024-03-22T11:05:26;18.53;;;9.80;;
70707;SDS011;58277;47.316;18.908;2024-03-22T11:07:58;16.33;;;9.68;;
70707;SDS011;58277;47.316;18.908;2024-03-22T11:10:29;16.63;;;9.50;;
70707;SDS011;58277;47.316;18.908;2024-03-22T11:12:52;16.80;;;9.90;;
70707;SDS011;58277;47.316;18.908;2024-03-22T11:15:16;18.35;;;10.23;;
70707;SDS011;58277;47.316;18.908;2024-03-22T11:17:46;18.03;;;10.00;;
70707;SDS011;58277;47.316;18.908;2024-03-22T11:20:13;13.93;;;8.00;;
70707;SDS011;58277;47.316;18.908;2024-03-22T11:22:37;14.23;;;8.05;;
70707;SDS011;58277;47.316;18.908;2024-03-22T11:24:59;13.73;;;8.68;;
70707;SDS011;58277;47.316;18.908;2024-03-22T11:27:21;14.15;;;7.90;;
70707;SDS011;58277;47.316;18.908;2024-03-22T11:30:01;10.90;;;6.17;;
70707;SDS011;58277;47.316;18.908;2024-03-22T11:32:25;10.95;;;5.63;;
70707;SDS011;58277;47.316;18.908;2024-03-22T11:34:48;6.00;;;3.80;;
70707;SDS011;58277;47.316;18.908;2024-03-22T11:37:10;6.63;;;4.20;;
70707;SDS011;58277;47.316;18.908;2024-03-22T11:39:32;7.70;;;4.70;;
70707;SDS011;58277;47.316;18.908;2024-03-22T11:41:53;10.17;;;5.00;;
70707;SDS011;58277;47.316;18.908;2024-03-22T11:44:16;8.82;;;5.45;;
70707;SDS011;58277;47.316;18.908;2024-03-22T11:46:39;10.25;;;5.63;;
70707;SDS011;58277;47.316;18.908;2024-03-22T11:49:01;9.30;;;5.18;;
70707;SDS011;58277;47.316;18.908;2024-03-22T11:51:23;10.20;;;5.78;;
70707;SDS011;58277;47.316;18.908;2024-03-22T11:53:49;11.00;;;6.50;;
70707;SDS011;58277;47.316;18.908;2024-03-22T11:56:17;14.85;;;6.80;;
70707;SDS011;58277;47.316;18.908;2024-03-22T11:58:39;11.52;;;6.57;;
70707;SDS011;58277;47.316;18.908;2024-03-22T12:01:01;13.57;;;7.00;;
70707;SDS011;58277;47.316;18.908;2024-03-22T12:03:25;12.13;;;6.85;;
70707;SDS011;58277;47.316;18.908;2024-03-22T12:05:48;12.43;;;6.90;;
70707;SDS011;58277;47.316;18.908;2024-03-22T12:08:12;14.75;;;7.57;;
70707;SDS011;58277;47.316;18.908;2024-03-22T12:10:35;14.52;;;7.85;;
70707;SDS011;58277;47.316;18.908;2024-03-22T12:12:57;12.82;;;7.40;;
70707;SDS011;58277;47.316;18.908;2024-03-22T12:15:19;14.02;;;7.40;;
70707;SDS011;58277;47.316;18.908;2024-03-22T12:17:41;13.33;;;7.43;;
70707;SDS011;58277;47.316;18.908;2024-03-22T12:20:04;15.30;;;7.60;;
70707;SDS011;58277;47.316;18.908;2024-03-22T12:22:30;12.70;;;7.55;;
70707;SDS011;58277;47.316;18.908;2024-03-22T12:24:52;13.20;;;7.70;;
70707;SDS011;58277;47.316;18.908;2024-03-22T12:27:14;16.05;;;9.73;;
70707;SDS011;58277;47.316;18.908;2024-03-22T12:29:35;13.33;;;8.13;;
70707;SDS011;58277;47.316;18.908;2024-03-22T12:31:57;15.95;;;8.45;;
70707;SDS011;58277;47.316;18.908;2024-03-22T12:34:22;15.48;;;8.45;;
70707;SDS011;58277;47.316;18.908;2024-03-22T12:36:44;16.98;;;9.60;;
70707;SDS011;58277;47.316;18.908;2024-03-22T12:39:05;17.80;;;9.27;;
70707;SDS011;58277;47.316;18.908;2024-03-22T12:41:28;14.17;;;8.37;;
70707;SDS011;58277;47.316;18.908;2024-03-22T12:43:50;13.75;;;8.32;;
70707;SDS011;58277;47.316;18.908;2024-03-22T12:46:12;14.63;;;8.73;;
70707;SDS011;58277;47.316;18.908;2024-03-22T12:48:34;16.65;;;8.00;;
70707;SDS011;58277;47.316;18.908;2024-03-22T12:50:56;13.70;;;7.22;;
70707;SDS011;58277;47.316;18.908;2024-03-22T12:53:20;12.00;;;6.97;;
70707;SDS011;58277;47.316;18.908;2024-03-22T12:55:42;13.60;;;7.15;;
70707;SDS011;58277;47.316;18.908;2024-03-22T12:58:03;12.20;;;6.85;;
70707;SDS011;58277;47.316;18.908;2024-03-22T13:00:26;12.93;;;6.82;;
70707;SDS011;58277;47.316;18.908;2024-03-22T13:02:48;11.73;;;7.20;;
70707;SDS011;58277;47.316;18.908;2024-03-22T13:05:10;11.63;;;6.93;;
70707;SDS011;58277;47.316;18.908;2024-03-22T13:07:33;12.50;;;6.93;;
70707;SDS011;58277;47.316;18.908;2024-03-22T13:09:56;10.90;;;6.38;;
70707;SDS011;58277;47.316;18.908;2024-03-22T13:12:17;13.18;;;6.65;;
70707;SDS011;58277;47.316;18.908;2024-03-22T13:14:39;10.82;;;6.00;;
70707;SDS011;58277;47.316;18.908;2024-03-22T13:17:01;9.77;;;6.00;;
70707;SDS011;58277;47.316;18.908;2024-03-22T13:19:23;11.05;;;6.07;;
70707;SDS011;58277;47.316;18.908;2024-03-22T13:21:45;11.40;;;6.22;;
70707;SDS011;58277;47.316;18.908;2024-03-22T13:24:09;13.15;;;6.30;;
70707;SDS011;58277;47.316;18.908;2024-03-22T13:26:31;10.13;;;5.93;;
70707;SDS011;58277;47.316;18.908;2024-03-22T13:28:53;13.20;;;7.00;;
70707;SDS011;58277;47.316;18.908;2024-03-22T13:31:15;12.13;;;6.40;;
70707;SDS011;58277;47.316;18.908;2024-03-22T13:33:37;9.57;;;5.90;;
70707;SDS011;58277;47.316;18.908;2024-03-22T13:36:04;11.20;;;6.10;;
70707;SDS011;58277;47.316;18.908;2024-03-22T13:38:26;11.43;;;6.50;;
70707;SDS011;58277;47.316;18.908;2024-03-22T13:40:55;12.30;;;7.07;;
70707;SDS011;58277;47.316;18.908;2024-03-22T13:43:17;12.05;;;6.78;;
70707;SDS011;58277;47.316;18.908;2024-03-22T13:45:40;11.65;;;6.38;;